Time;durP1;ratioP1;P1;durP2;ratioP2;P2;SDS_P1;SDS_P2;PMS_P1;PMS_P2;Temp;Humidity;BMP_temperature;BMP_pressure;BME280_temperature;BME280_humidity;BME280_pressure;Samples;Min_cycle;Max_cycle;Signal;HPM_P1;HPM_P2
2022/03/09 03:00:44;;;;;;;11.40;5.70;;;;;;;;;;5056865;28;20061;-77
2022/03/09 03:03:10;;;;;;;13.75;6.15;;;;;;;;;;5058327;28;20041;-77
2022/03/09 03:05:36;;;;;;;12.40;6.40;;;;;;;;;;5058840;28;20429;-78
2022/03/09 03:08:02;;;;;;;12.80;6.28;;;;;;;;;;5058654;28;20052;-77
2022/03/09 03:10:28;;;;;;;14.80;6.75;;;;;;;;;;5062075;28;20052;-78
2022/03/09 03:12:54;;;;;;;11.50;6.47;;;;;;;;;;5066203;28;20041;-77
2022/03/09 03:15:20;;;;;;;11.50;6.65;;;;;;;;;;5044084;28;20483;-77
2022/03/09 03:17:46;;;;;;;11.75;6.90;;;;;;;;;;5063069;28;20037;-77
2022/03/09 03:20:12;;;;;;;14.45;6.82;;;;;;;;;;5053385;28;20045;-77
2022/03/09 03:22:38;;;;;;;13.43;7.03;;;;;;;;;;5069997;28;20037;-77
2022/03/09 03:25:04;;;;;;;12.82;6.82;;;;;;;;;;5070977;28;20095;-78
2022/03/09 03:27:30;;;;;;;13.10;6.75;;;;;;;;;;5041222;28;20037;-78
2022/03/09 03:29:56;;;;;;;14.55;7.05;;;;;;;;;;5042607;28;20071;-77
2022/03/09 03:32:22;;;;;;;12.93;7.32;;;;;;;;;;5060486;28;20429;-77
2022/03/09 03:34:48;;;;;;;12.38;6.45;;;;;;;;;;5043744;28;20036;-77
2022/03/09 03:37:14;;;;;;;15.27;6.85;;;;;;;;;;5042976;28;20452;-78
2022/03/09 03:39:40;;;;;;;14.90;6.90;;;;;;;;;;5060191;28;20064;-78
2022/03/09 03:42:06;;;;;;;12.48;6.28;;;;;;;;;;5059982;28;20146;-78
2022/03/09 03:44:32;;;;;;;12.57;6.30;;;;;;;;;;5042143;28;20341;-76
2022/03/09 03:46:58;;;;;;;13.30;7.10;;;;;;;;;;5059796;28;20167;-78
2022/03/09 03:49:24;;;;;;;12.88;6.78;;;;;;;;;;5058079;28;20064;-77
2022/03/09 03:51:51;;;;;;;13.63;7.70;;;;;;;;;;5041813;28;20044;-78
2022/03/09 03:54:17;;;;;;;15.38;7.47;;;;;;;;;;5058312;28;20041;-77
2022/03/09 03:56:43;;;;;;;12.05;6.60;;;;;;;;;;5058139;28;20112;-77
2022/03/09 03:59:09;;;;;;;15.13;6.70;;;;;;;;;;5041000;28;20053;-78
2022/03/09 04:01:35;;;;;;;12.13;7.13;;;;;;;;;;5058146;28;20095;-77
2022/03/09 04:04:00;;;;;;;14.35;7.53;;;;;;;;;;5059856;28;20124;-78
2022/03/09 04:06:26;;;;;;;11.65;6.80;;;;;;;;;;5057766;28;20047;-78
2022/03/09 04:08:52;;;;;;;11.90;6.95;;;;;;;;;;5057741;28;20056;-77
2022/03/09 04:11:18;;;;;;;11.45;6.60;;;;;;;;;;5057939;28;20116;-78
2022/03/09 04:13:44;;;;;;;18.33;7.70;;;;;;;;;;5059449;28;20078;-76
2022/03/09 04:16:11;;;;;;;16.20;8.05;;;;;;;;;;5041265;28;20041;-78
2022/03/09 04:18:37;;;;;;;13.75;7.93;;;;;;;;;;5041590;28;20045;-77
2022/03/09 04:21:03;;;;;;;15.43;7.88;;;;;;;;;;5042387;28;20048;-78
2022/03/09 04:23:29;;;;;;;16.02;7.55;;;;;;;;;;5057763;28;20037;-77
2022/03/09 04:25:55;;;;;;;19.10;7.70;;;;;;;;;;5058033;28;20503;-77
2022/03/09 04:28:21;;;;;;;12.80;7.05;;;;;;;;;;5042435;28;20072;-78
2022/03/09 04:30:47;;;;;;;15.65;7.05;;;;;;;;;;5058544;28;20083;-77
2022/03/09 04:33:13;;;;;;;12.55;6.78;;;;;;;;;;5059398;28;20440;-77
2022/03/09 04:35:39;;;;;;;15.38;7.10;;;;;;;;;;5058294;28;20047;-77
2022/03/09 04:38:05;;;;;;;13.63;6.93;;;;;;;;;;5041474;28;20059;-77
2022/03/09 04:40:30;;;;;;;16.40;7.30;;;;;;;;;;5057333;28;20041;-77
2022/03/09 04:42:56;;;;;;;14.25;8.02;;;;;;;;;;5056641;28;20398;-78
2022/03/09 04:45:23;;;;;;;16.85;7.85;;;;;;;;;;5058973;28;20037;-78
2022/03/09 04:47:49;;;;;;;13.15;7.90;;;;;;;;;;5057751;28;20033;-77
2022/03/09 04:50:15;;;;;;;16.88;8.15;;;;;;;;;;5058603;28;20405;-78
2022/03/09 04:52:41;;;;;;;19.48;8.00;;;;;;;;;;5057858;28;20326;-77
2022/03/09 04:55:08;;;;;;;13.63;6.75;;;;;;;;;;5058936;28;20059;-79
2022/03/09 04:57:36;;;;;;;15.48;6.95;;;;;;;;;;5058495;28;20041;-78
2022/03/09 05:00:02;;;;;;;11.95;6.53;;;;;;;;;;5058555;28;20048;-78
2022/03/09 05:02:28;;;;;;;14.00;6.75;;;;;;;;;;5058130;28;20033;-77
2022/03/09 05:04:54;;;;;;;13.90;7.85;;;;;;;;;;5041132;28;20097;-78
2022/03/09 05:07:20;;;;;;;15.88;8.70;;;;;;;;;;5041988;28;20334;-78
2022/03/09 05:09:46;;;;;;;14.23;7.20;;;;;;;;;;5059860;28;20033;-79
2022/03/09 05:12:12;;;;;;;14.70;7.45;;;;;;;;;;5042098;28;20443;-78
2022/03/09 05:14:38;;;;;;;18.30;7.40;;;;;;;;;;5059752;28;20084;-78
2022/03/09 05:17:04;;;;;;;16.85;8.70;;;;;;;;;;5059241;28;20455;-78
2022/03/09 05:19:30;;;;;;;13.13;7.25;;;;;;;;;;5041015;28;20359;-77
2022/03/09 05:21:56;;;;;;;13.02;7.32;;;;;;;;;;5041120;28;20075;-78
2022/03/09 05:24:22;;;;;;;13.57;7.38;;;;;;;;;;5057837;28;20075;-78
2022/03/09 05:26:48;;;;;;;15.15;7.70;;;;;;;;;;5060305;28;20037;-77
2022/03/09 05:29:14;;;;;;;13.68;7.80;;;;;;;;;;5058373;28;20467;-78
2022/03/09 05:31:41;;;;;;;12.93;7.15;;;;;;;;;;5042696;28;20047;-78
2022/03/09 05:34:07;;;;;;;11.80;6.90;;;;;;;;;;5057758;28;20125;-77
2022/03/09 05:36:33;;;;;;;15.23;7.55;;;;;;;;;;5057719;28;20041;-78
2022/03/09 05:38:59;;;;;;;13.23;6.93;;;;;;;;;;5061701;28;20040;-79
2022/03/09 05:41:25;;;;;;;18.33;7.60;;;;;;;;;;5044117;28;20120;-77
2022/03/09 05:43:51;;;;;;;16.13;7.28;;;;;;;;;;5057690;28;20047;-78
2022/03/09 05:46:17;;;;;;;14.68;7.70;;;;;;;;;;5057649;28;20444;-77
2022/03/09 05:48:43;;;;;;;13.40;7.10;;;;;;;;;;5058955;28;20436;-78
2022/03/09 05:51:09;;;;;;;16.17;8.07;;;;;;;;;;5041151;28;20048;-78
2022/03/09 05:53:35;;;;;;;14.60;7.90;;;;;;;;;;5057345;28;20044;-77
2022/03/09 05:56:01;;;;;;;14.90;7.80;;;;;;;;;;5041948;28;20040;-78
2022/03/09 05:58:27;;;;;;;15.05;7.35;;;;;;;;;;5039906;28;20055;-78
2022/03/09 06:00:53;;;;;;;15.23;7.50;;;;;;;;;;5040552;28;20357;-77
2022/03/09 06:03:19;;;;;;;17.52;8.20;;;;;;;;;;5058287;28;20117;-78
2022/03/09 06:05:45;;;;;;;14.27;8.25;;;;;;;;;;5039342;28;20052;-77
2022/03/09 06:08:11;;;;;;;16.05;8.35;;;;;;;;;;5038976;28;20038;-76
2022/03/09 06:10:37;;;;;;;14.93;8.25;;;;;;;;;;5023253;28;20053;-77
2022/03/09 06:13:03;;;;;;;16.83;8.30;;;;;;;;;;5038509;28;20059;-77
2022/03/09 06:15:29;;;;;;;16.98;8.00;;;;;;;;;;5025550;28;20108;-76
2022/03/09 06:17:55;;;;;;;15.65;7.40;;;;;;;;;;5043153;28;20045;-76
2022/03/09 06:20:22;;;;;;;13.93;7.20;;;;;;;;;;5044223;28;20117;-77
2022/03/09 06:22:48;;;;;;;12.90;7.20;;;;;;;;;;5054296;28;20041;-77
2022/03/09 06:25:14;;;;;;;13.63;7.25;;;;;;;;;;5047431;28;20459;-77
2022/03/09 06:27:44;;;;;;;13.52;7.18;;;;;;;;;;5040301;28;20056;-78
2022/03/09 06:30:10;;;;;;;17.42;7.85;;;;;;;;;;5021479;28;20052;-78
2022/03/09 06:32:36;;;;;;;17.40;7.88;;;;;;;;;;5023042;28;20045;-81
2022/03/09 06:35:03;;;;;;;18.17;8.27;;;;;;;;;;5023737;28;20084;-81
2022/03/09 06:37:29;;;;;;;14.77;8.13;;;;;;;;;;5041134;28;20441;-81
2022/03/09 06:39:56;;;;;;;17.70;8.70;;;;;;;;;;5041564;28;20052;-82
2022/03/09 06:42:23;;;;;;;15.85;8.60;;;;;;;;;;5044964;28;20045;-81
2022/03/09 06:44:49;;;;;;;17.65;8.55;;;;;;;;;;5045712;28;20034;-80
2022/03/09 06:47:15;;;;;;;16.02;8.48;;;;;;;;;;5047067;28;20038;-79
2022/03/09 06:49:41;;;;;;;17.15;9.25;;;;;;;;;;5046245;28;20104;-81
2022/03/09 06:52:07;;;;;;;17.92;8.50;;;;;;;;;;5028850;28;20052;-78
2022/03/09 06:54:33;;;;;;;20.38;9.13;;;;;;;;;;5026625;28;20064;-81
2022/03/09 06:56:59;;;;;;;24.10;10.70;;;;;;;;;;5039340;28;20041;-81
2022/03/09 06:59:25;;;;;;;16.60;9.60;;;;;;;;;;5039440;28;20133;-80
2022/03/09 07:01:51;;;;;;;20.65;10.38;;;;;;;;;;5022250;28;20053;-80
2022/03/09 07:04:17;;;;;;;19.63;10.23;;;;;;;;;;5023662;28;20099;-81
2022/03/09 07:06:43;;;;;;;23.13;10.88;;;;;;;;;;5026769;28;20042;-81
2022/03/09 07:09:09;;;;;;;23.48;10.95;;;;;;;;;;5026682;28;20042;-81
2022/03/09 07:11:35;;;;;;;21.35;9.98;;;;;;;;;;5025760;28;20041;-80
2022/03/09 07:14:01;;;;;;;21.10;10.18;;;;;;;;;;5027250;28;20045;-81
2022/03/09 07:16:27;;;;;;;19.08;9.93;;;;;;;;;;5044296;28;20236;-79
2022/03/09 07:18:53;;;;;;;19.95;9.23;;;;;;;;;;5027201;28;20049;-80
2022/03/09 07:21:19;;;;;;;17.58;8.50;;;;;;;;;;5027407;28;20354;-81
2022/03/09 07:23:45;;;;;;;21.60;8.80;;;;;;;;;;5044801;28;20112;-81
2022/03/09 07:26:11;;;;;;;14.63;8.07;;;;;;;;;;5044786;28;20040;-81
2022/03/09 07:28:37;;;;;;;20.25;9.05;;;;;;;;;;5044152;28;20049;-80
2022/03/09 07:31:03;;;;;;;18.70;8.95;;;;;;;;;;5026912;28;20060;-80
2022/03/09 07:33:29;;;;;;;22.20;9.05;;;;;;;;;;5028292;28;20052;-80
2022/03/09 07:35:56;;;;;;;21.75;9.55;;;;;;;;;;5026932;28;20065;-80
2022/03/09 07:38:22;;;;;;;19.33;9.40;;;;;;;;;;5029525;28;20071;-81
2022/03/09 07:40:48;;;;;;;17.80;8.35;;;;;;;;;;5029753;28;20053;-80
2022/03/09 07:43:15;;;;;;;19.80;9.02;;;;;;;;;;5033042;28;20408;-80
2022/03/09 07:45:41;;;;;;;22.25;8.65;;;;;;;;;;5031439;28;20041;-79
2022/03/09 07:48:07;;;;;;;19.70;8.93;;;;;;;;;;5031814;28;20033;-79
2022/03/09 07:50:33;;;;;;;19.02;8.68;;;;;;;;;;5030835;28;20048;-78
2022/03/09 07:52:59;;;;;;;15.90;8.32;;;;;;;;;;5030022;28;20045;-79
2022/03/09 07:55:25;;;;;;;17.83;8.48;;;;;;;;;;5046422;28;20042;-78
2022/03/09 07:57:51;;;;;;;20.75;8.55;;;;;;;;;;5029453;28;20041;-81
2022/03/09 08:00:17;;;;;;;17.15;8.30;;;;;;;;;;5042767;28;20079;-81
2022/03/09 08:02:43;;;;;;;18.90;8.68;;;;;;;;;;5026805;28;20052;-80
2022/03/09 08:05:09;;;;;;;17.90;8.90;;;;;;;;;;5042480;28;20043;-81
2022/03/09 08:07:35;;;;;;;15.82;8.57;;;;;;;;;;5042092;28;20037;-80
2022/03/09 08:10:01;;;;;;;15.35;7.90;;;;;;;;;;5043221;28;20065;-80
2022/03/09 08:12:27;;;;;;;16.25;7.57;;;;;;;;;;5043764;28;20053;-82
2022/03/09 08:14:54;;;;;;;14.20;7.20;;;;;;;;;;5028383;28;20038;-81
2022/03/09 08:17:20;;;;;;;13.75;7.18;;;;;;;;;;5027928;28;20518;-81
2022/03/09 08:19:46;;;;;;;13.60;7.50;;;;;;;;;;5026148;28;20346;-81
2022/03/09 08:22:12;;;;;;;16.13;7.72;;;;;;;;;;5042895;28;20042;-79
2022/03/09 08:24:38;;;;;;;12.38;7.57;;;;;;;;;;5045599;28;20045;-79
2022/03/09 08:27:04;;;;;;;13.20;7.88;;;;;;;;;;5051056;28;20408;-80
2022/03/09 08:29:30;;;;;;;14.07;7.72;;;;;;;;;;5034780;28;20096;-81
2022/03/09 08:31:57;;;;;;;17.33;8.10;;;;;;;;;;5047078;28;20037;-81
2022/03/09 08:34:23;;;;;;;11.80;7.57;;;;;;;;;;5040775;28;20040;-81
2022/03/09 08:36:48;;;;;;;17.00;7.95;;;;;;;;;;5040635;28;20082;-80
2022/03/09 08:39:15;;;;;;;16.73;9.10;;;;;;;;;;5056045;28;20061;-80
2022/03/09 08:41:41;;;;;;;14.52;7.78;;;;;;;;;;5054879;28;20116;-79
2022/03/09 08:44:07;;;;;;;15.00;8.60;;;;;;;;;;5024104;28;20124;-79
2022/03/09 08:46:33;;;;;;;17.27;8.07;;;;;;;;;;5024923;28;20037;-79
2022/03/09 08:48:59;;;;;;;13.57;8.35;;;;;;;;;;5026155;28;20132;-79
2022/03/09 08:51:25;;;;;;;15.30;8.02;;;;;;;;;;5026198;28;20087;-79
2022/03/09 08:53:51;;;;;;;15.27;7.97;;;;;;;;;;5027123;28;20037;-80
2022/03/09 08:56:17;;;;;;;12.98;7.93;;;;;;;;;;5028520;28;20063;-79
2022/03/09 08:58:43;;;;;;;15.75;7.35;;;;;;;;;;5035221;28;20039;-79
2022/03/09 09:01:09;;;;;;;14.70;7.82;;;;;;;;;;5032343;28;20053;-80
2022/03/09 09:03:35;;;;;;;12.70;7.22;;;;;;;;;;5049415;28;20093;-79
2022/03/09 09:06:01;;;;;;;14.05;7.32;;;;;;;;;;5034760;28;20029;-80
2022/03/09 09:08:27;;;;;;;14.60;7.30;;;;;;;;;;5033901;28;20068;-77
2022/03/09 09:10:53;;;;;;;12.77;7.80;;;;;;;;;;5042642;28;20044;-80
2022/03/09 09:13:19;;;;;;;13.07;7.53;;;;;;;;;;5040867;28;20041;-81
2022/03/09 09:15:45;;;;;;;13.07;7.30;;;;;;;;;;5040715;28;20099;-81
2022/03/09 09:18:12;;;;;;;12.25;7.70;;;;;;;;;;5025950;28;20045;-82
2022/03/09 09:20:38;;;;;;;15.02;7.72;;;;;;;;;;5041887;28;20045;-81
2022/03/09 09:23:05;;;;;;;14.30;8.00;;;;;;;;;;5025595;28;20091;-80
2022/03/09 09:25:31;;;;;;;19.85;7.97;;;;;;;;;;5040597;28;20073;-83
2022/03/09 09:27:57;;;;;;;15.18;7.55;;;;;;;;;;5025456;28;20033;-80
2022/03/09 09:30:23;;;;;;;15.85;7.90;;;;;;;;;;5027381;28;20045;-80
2022/03/09 09:32:49;;;;;;;12.80;7.90;;;;;;;;;;5027643;28;20094;-82
2022/03/09 09:35:15;;;;;;;14.45;7.88;;;;;;;;;;5046669;28;20068;-82
2022/03/09 09:37:42;;;;;;;12.52;8.00;;;;;;;;;;5032985;28;20063;-80
2022/03/09 09:40:09;;;;;;;14.32;7.60;;;;;;;;;;5041519;28;20072;-79
2022/03/09 09:42:35;;;;;;;12.52;7.15;;;;;;;;;;5039913;28;20056;-81
2022/03/09 09:45:01;;;;;;;17.77;7.88;;;;;;;;;;5046200;28;20060;-81
2022/03/09 09:47:28;;;;;;;14.20;7.70;;;;;;;;;;5027802;28;20042;-80
2022/03/09 09:49:55;;;;;;;18.45;7.88;;;;;;;;;;5025118;28;20045;-81
2022/03/09 09:52:21;;;;;;;12.50;7.93;;;;;;;;;;5023781;28;20037;-79
2022/03/09 09:54:54;;;;;;;13.90;7.53;;;;;;;;;;5023132;28;20096;-80
2022/03/09 09:57:21;;;;;;;15.88;8.45;;;;;;;;;;5022720;28;20741;-79
2022/03/09 09:59:47;;;;;;;13.98;7.60;;;;;;;;;;5039191;28;20132;-79
2022/03/09 10:02:13;;;;;;;17.13;7.88;;;;;;;;;;5022192;28;20052;-81
2022/03/09 10:04:40;;;;;;;18.05;8.07;;;;;;;;;;5030955;28;20045;-82
2022/03/09 10:07:06;;;;;;;12.30;7.32;;;;;;;;;;5039277;28;20117;-81
2022/03/09 10:09:35;;;;;;;12.10;7.55;;;;;;;;;;5041513;28;20061;-81
2022/03/09 10:12:03;;;;;;;16.60;7.97;;;;;;;;;;5025070;28;20072;-81
2022/03/09 10:14:46;;;;;;;12.98;7.55;;;;;;;;;;5040899;28;20157;-79
2022/03/09 10:17:15;;;;;;;15.07;7.68;;;;;;;;;;5025678;28;20531;-81
2022/03/09 10:19:43;;;;;;;13.50;8.13;;;;;;;;;;5023739;28;20114;-78
2022/03/09 10:22:24;;;;;;;14.68;7.68;;;;;;;;;;5023561;28;20037;-82
2022/03/09 10:24:50;;;;;;;14.05;7.65;;;;;;;;;;5040219;28;20519;-80
2022/03/09 10:27:35;;;;;;;11.82;7.22;;;;;;;;;;5043909;28;20037;-78
2022/03/09 10:30:03;;;;;;;16.38;8.32;;;;;;;;;;5046529;28;20033;-79
2022/03/09 10:32:48;;;;;;;13.07;7.68;;;;;;;;;;5046998;28;20041;-79
2022/03/09 10:35:15;;;;;;;18.60;8.07;;;;;;;;;;5049679;28;20048;-79
2022/03/09 10:37:42;;;;;;;11.63;8.10;;;;;;;;;;5030186;28;20037;-79
2022/03/09 10:40:18;;;;;;;13.20;8.00;;;;;;;;;;5050931;28;20048;-80
2022/03/09 10:42:44;;;;;;;12.55;7.97;;;;;;;;;;5026701;28;20049;-80
2022/03/09 10:45:10;;;;;;;12.93;7.75;;;;;;;;;;5038975;28;20041;-78
2022/03/09 10:47:43;;;;;;;14.60;7.82;;;;;;;;;;5040351;28;20080;-79
2022/03/09 10:50:13;;;;;;;14.43;8.52;;;;;;;;;;5027038;28;20056;-81
2022/03/09 10:52:48;;;;;;;14.82;7.93;;;;;;;;;;5022723;28;20469;-81
2022/03/09 10:55:25;;;;;;;12.00;7.20;;;;;;;;;;5041253;28;20437;-81
2022/03/09 10:57:51;;;;;;;12.48;7.90;;;;;;;;;;5026009;28;20116;-82
2022/03/09 11:00:37;;;;;;;14.52;8.27;;;;;;;;;;5024946;28;20065;-80
2022/03/09 11:03:07;;;;;;;19.05;8.18;;;;;;;;;;5024144;28;20040;-82
2022/03/09 11:05:33;;;;;;;14.15;8.23;;;;;;;;;;5024635;28;20064;-81
2022/03/09 11:07:59;;;;;;;15.82;8.23;;;;;;;;;;5023046;28;20065;-80
2022/03/09 11:10:26;;;;;;;14.57;8.30;;;;;;;;;;5025688;28;20039;-79
2022/03/09 11:12:52;;;;;;;15.15;8.10;;;;;;;;;;5023060;28;20045;-81
2022/03/09 11:15:18;;;;;;;13.80;8.13;;;;;;;;;;5041873;28;20049;-81
2022/03/09 11:17:45;;;;;;;11.75;7.68;;;;;;;;;;5023329;28;20034;-81
2022/03/09 11:20:12;;;;;;;15.15;8.40;;;;;;;;;;5039802;28;20096;-81
2022/03/09 11:22:38;;;;;;;11.70;7.90;;;;;;;;;;5040136;28;20064;-80
2022/03/09 11:25:05;;;;;;;14.40;8.57;;;;;;;;;;5040531;28;20464;-79
2022/03/09 11:27:31;;;;;;;12.77;8.55;;;;;;;;;;5022016;28;20056;-79
2022/03/09 11:30:00;;;;;;;12.55;8.18;;;;;;;;;;5022128;28;20038;-81
2022/03/09 11:32:35;;;;;;;14.55;8.10;;;;;;;;;;5039141;28;20056;-81
2022/03/09 11:35:01;;;;;;;13.55;8.32;;;;;;;;;;5025549;28;20048;-80
2022/03/09 11:37:34;;;;;;;13.00;8.52;;;;;;;;;;5027958;28;20037;-81
2022/03/09 11:40:06;;;;;;;13.82;8.50;;;;;;;;;;5039357;28;20442;-79
2022/03/09 11:42:36;;;;;;;19.65;8.63;;;;;;;;;;5039438;28;20096;-80
2022/03/09 11:45:14;;;;;;;12.32;8.07;;;;;;;;;;5038887;28;20037;-80
2022/03/09 11:47:59;;;;;;;15.43;8.35;;;;;;;;;;5039810;28;20033;-82
2022/03/09 11:50:25;;;;;;;12.75;8.10;;;;;;;;;;5042433;28;20095;-80
2022/03/09 11:53:05;;;;;;;16.75;9.15;;;;;;;;;;5028485;28;20041;-81
2022/03/09 11:55:31;;;;;;;13.13;8.30;;;;;;;;;;5026723;28;20091;-80
2022/03/09 11:58:05;;;;;;;12.68;8.77;;;;;;;;;;5025773;28;20461;-81
2022/03/09 12:00:31;;;;;;;14.15;8.30;;;;;;;;;;5041458;28;20461;-80
2022/03/09 12:02:57;;;;;;;11.45;7.82;;;;;;;;;;5045018;28;20037;-83
2022/03/09 12:05:26;;;;;;;13.93;7.97;;;;;;;;;;5027449;28;20038;-81
2022/03/09 12:07:52;;;;;;;14.18;8.60;;;;;;;;;;5044244;28;20041;-82
2022/03/09 12:10:22;;;;;;;13.15;8.35;;;;;;;;;;5032000;28;20041;-82
2022/03/09 12:13:07;;;;;;;14.38;8.10;;;;;;;;;;5026862;28;20089;-80
2022/03/09 12:15:36;;;;;;;12.80;7.80;;;;;;;;;;5045024;28;20389;-79
2022/03/09 12:18:03;;;;;;;12.95;7.88;;;;;;;;;;5045189;28;20097;-80
2022/03/09 12:20:32;;;;;;;13.70;7.50;;;;;;;;;;5026689;28;20373;-79
2022/03/09 12:22:59;;;;;;;12.98;8.52;;;;;;;;;;5026181;28;20473;-80
2022/03/09 12:25:41;;;;;;;14.50;8.05;;;;;;;;;;5045461;28;20080;-79
2022/03/09 12:28:25;;;;;;;12.13;8.40;;;;;;;;;;5044752;28;20076;-81
2022/03/09 12:30:52;;;;;;;14.68;8.35;;;;;;;;;;5044699;28;20037;-81
2022/03/09 12:33:28;;;;;;;12.10;7.97;;;;;;;;;;5041549;28;20041;-81
2022/03/09 12:35:54;;;;;;;12.80;8.07;;;;;;;;;;5041751;28;20037;-80
2022/03/09 12:38:22;;;;;;;13.18;8.02;;;;;;;;;;5026131;28;20045;-81
2022/03/09 12:40:48;;;;;;;14.98;8.43;;;;;;;;;;5026515;28;20045;-81
2022/03/09 12:43:14;;;;;;;14.65;7.85;;;;;;;;;;5026175;28;20107;-81
2022/03/09 12:46:09;;;;;;;12.48;8.05;;;;;;;;;;5043854;28;20042;-81
2022/03/09 12:48:38;;;;;;;11.82;7.95;;;;;;;;;;5026006;28;20034;-82
2022/03/09 12:51:04;;;;;;;11.38;7.32;;;;;;;;;;5025881;28;20069;-80
2022/03/09 12:53:30;;;;;;;12.60;7.75;;;;;;;;;;5025521;28;20045;-81
2022/03/09 12:55:56;;;;;;;13.38;7.93;;;;;;;;;;5026447;28;20034;-81
2022/03/09 12:58:23;;;;;;;14.73;8.88;;;;;;;;;;5026220;28;20112;-81
2022/03/09 13:01:00;;;;;;;14.32;8.40;;;;;;;;;;5024930;28;20057;-81
2022/03/09 13:03:28;;;;;;;13.25;8.05;;;;;;;;;;5023890;28;20038;-82
2022/03/09 13:05:54;;;;;;;15.73;8.65;;;;;;;;;;5026534;28;20129;-81
2022/03/09 13:08:21;;;;;;;13.15;8.30;;;;;;;;;;5050358;28;20361;-80
2022/03/09 13:10:51;;;;;;;14.45;8.25;;;;;;;;;;5031261;28;20056;-80
2022/03/09 13:13:17;;;;;;;13.52;8.30;;;;;;;;;;5040104;28;20064;-80
2022/03/09 13:15:46;;;;;;;16.15;8.80;;;;;;;;;;5022229;28;20102;-79
2022/03/09 13:18:12;;;;;;;13.93;8.80;;;;;;;;;;5038543;28;20338;-79
2022/03/09 13:20:39;;;;;;;13.95;8.32;;;;;;;;;;5021826;28;20045;-78
2022/03/09 13:23:05;;;;;;;12.45;8.13;;;;;;;;;;5023028;28;20038;-80
2022/03/09 13:25:31;;;;;;;12.15;8.20;;;;;;;;;;5023241;28;20052;-80
2022/03/09 13:28:07;;;;;;;13.57;8.50;;;;;;;;;;5023064;28;20111;-80
2022/03/09 13:30:33;;;;;;;13.55;8.32;;;;;;;;;;5039662;28;20435;-80
2022/03/09 13:33:09;;;;;;;13.00;8.65;;;;;;;;;;5022260;28;20092;-81
2022/03/09 13:35:45;;;;;;;14.75;8.60;;;;;;;;;;5039302;28;20041;-79
2022/03/09 13:38:11;;;;;;;13.75;8.38;;;;;;;;;;5039351;28;20037;-79
2022/03/09 13:40:44;;;;;;;13.32;8.25;;;;;;;;;;5039938;28;20095;-80
2022/03/09 13:43:10;;;;;;;14.73;8.68;;;;;;;;;;5039050;28;20049;-79
2022/03/09 13:45:40;;;;;;;14.27;8.15;;;;;;;;;;5021637;28;20354;-79
2022/03/09 13:48:07;;;;;;;16.40;8.43;;;;;;;;;;5023830;28;20449;-80
2022/03/09 13:50:48;;;;;;;14.27;8.35;;;;;;;;;;5039855;28;20037;-81
2022/03/09 13:53:14;;;;;;;14.32;8.73;;;;;;;;;;5024508;28;20045;-79
2022/03/09 13:55:41;;;;;;;12.13;8.32;;;;;;;;;;5039203;28;20037;-80
2022/03/09 13:58:07;;;;;;;16.33;8.90;;;;;;;;;;5039827;28;20052;-80
2022/03/09 14:00:37;;;;;;;13.25;9.07;;;;;;;;;;5023022;28;20053;-79
2022/03/09 14:03:21;;;;;;;14.35;9.00;;;;;;;;;;5023376;28;20095;-79
2022/03/09 14:05:51;;;;;;;13.32;8.45;;;;;;;;;;5039631;28;20034;-80
2022/03/09 14:08:27;;;;;;;13.52;8.32;;;;;;;;;;5041305;28;20037;-80
2022/03/09 14:11:13;;;;;;;12.48;7.85;;;;;;;;;;5025322;28;20120;-81
2022/03/09 14:14:01;;;;;;;12.13;7.78;;;;;;;;;;5024537;28;20045;-80
2022/03/09 14:16:32;;;;;;;15.45;8.35;;;;;;;;;;5041891;28;20401;-80
2022/03/09 14:18:59;;;;;;;12.63;7.93;;;;;;;;;;5023064;28;20483;-81
2022/03/09 14:21:25;;;;;;;14.38;8.10;;;;;;;;;;5039852;28;20099;-79
2022/03/09 14:23:53;;;;;;;10.63;7.57;;;;;;;;;;5025228;28;20037;-80
2022/03/09 14:26:19;;;;;;;12.90;7.93;;;;;;;;;;5023035;28;20123;-79
2022/03/09 14:28:45;;;;;;;12.30;7.70;;;;;;;;;;5041848;28;20037;-81
2022/03/09 14:31:12;;;;;;;10.52;7.60;;;;;;;;;;5038990;28;20168;-80
2022/03/09 14:33:38;;;;;;;11.35;7.80;;;;;;;;;;5040205;28;20048;-80
2022/03/09 14:36:06;;;;;;;15.60;7.60;;;;;;;;;;5021727;28;20053;-78
2022/03/09 14:38:32;;;;;;;10.82;7.57;;;;;;;;;;5039457;28;20350;-78
2022/03/09 14:40:58;;;;;;;14.40;7.97;;;;;;;;;;5022790;28;20059;-79
2022/03/09 14:43:26;;;;;;;12.20;7.60;;;;;;;;;;5038872;28;20033;-79
2022/03/09 14:45:53;;;;;;;12.43;7.57;;;;;;;;;;5027263;28;20033;-78
2022/03/09 14:48:20;;;;;;;10.80;7.03;;;;;;;;;;5043230;28;20041;-81
2022/03/09 14:50:46;;;;;;;10.80;7.45;;;;;;;;;;5038318;28;20037;-80
2022/03/09 14:53:12;;;;;;;10.57;6.88;;;;;;;;;;5037861;28;20083;-78
2022/03/09 14:55:39;;;;;;;12.32;7.60;;;;;;;;;;5037689;28;20227;-79
2022/03/09 14:58:05;;;;;;;12.35;7.75;;;;;;;;;;5037874;28;20041;-81
2022/03/09 15:00:31;;;;;;;11.52;6.90;;;;;;;;;;5022226;28;20053;-79
2022/03/09 15:02:57;;;;;;;16.17;7.13;;;;;;;;;;5038431;28;20099;-80
2022/03/09 15:05:25;;;;;;;11.48;7.15;;;;;;;;;;5038824;28;20123;-81
2022/03/09 15:07:51;;;;;;;10.07;7.22;;;;;;;;;;5020621;28;20045;-80
2022/03/09 15:10:17;;;;;;;13.52;7.43;;;;;;;;;;5020449;28;20377;-81
2022/03/09 15:12:43;;;;;;;12.27;7.85;;;;;;;;;;5020843;28;20038;-80
2022/03/09 15:15:10;;;;;;;12.55;7.47;;;;;;;;;;5038426;28;20467;-80
2022/03/09 15:17:36;;;;;;;11.80;7.40;;;;;;;;;;5020619;28;20077;-80
2022/03/09 15:20:02;;;;;;;10.70;7.22;;;;;;;;;;5019488;28;20046;-81
2022/03/09 15:22:29;;;;;;;11.68;6.85;;;;;;;;;;5019879;28;20055;-80
2022/03/09 15:24:55;;;;;;;12.70;7.30;;;;;;;;;;5020469;28;20053;-81
2022/03/09 15:27:21;;;;;;;11.25;6.60;;;;;;;;;;5025144;28;20041;-80
2022/03/09 15:29:47;;;;;;;10.80;6.65;;;;;;;;;;5042303;28;20361;-81
2022/03/09 15:32:13;;;;;;;9.32;6.00;;;;;;;;;;5027034;28;20084;-79
2022/03/09 15:34:41;;;;;;;13.63;6.97;;;;;;;;;;5030106;28;20046;-81
2022/03/09 15:37:07;;;;;;;11.00;6.88;;;;;;;;;;5043838;28;20041;-81
2022/03/09 15:39:34;;;;;;;10.73;6.78;;;;;;;;;;5028971;28;20041;-81
2022/03/09 15:42:00;;;;;;;11.57;7.47;;;;;;;;;;5045186;28;20051;-81
2022/03/09 15:44:26;;;;;;;10.68;7.00;;;;;;;;;;5030421;28;20033;-80
2022/03/09 15:46:53;;;;;;;13.40;7.90;;;;;;;;;;5031174;28;20080;-81
2022/03/09 15:49:19;;;;;;;10.20;6.53;;;;;;;;;;5046919;28;20042;-83
2022/03/09 15:51:45;;;;;;;12.20;7.00;;;;;;;;;;5046316;28;20116;-82
2022/03/09 15:54:11;;;;;;;12.68;7.30;;;;;;;;;;5031872;28;20087;-82
2022/03/09 15:56:38;;;;;;;9.82;6.75;;;;;;;;;;5052722;28;20042;-81
2022/03/09 15:59:04;;;;;;;10.32;7.15;;;;;;;;;;5027444;28;20084;-82
2022/03/09 16:01:30;;;;;;;13.15;7.68;;;;;;;;;;5042847;28;20042;-81
2022/03/09 16:03:56;;;;;;;12.10;7.45;;;;;;;;;;5042543;28;20090;-81
2022/03/09 16:06:22;;;;;;;11.02;7.50;;;;;;;;;;5048787;28;20045;-80
2022/03/09 16:08:51;;;;;;;13.07;7.63;;;;;;;;;;5054886;28;20037;-81
2022/03/09 16:11:18;;;;;;;11.10;7.57;;;;;;;;;;5037633;28;20045;-79
2022/03/09 16:13:44;;;;;;;10.73;7.10;;;;;;;;;;5043206;28;20037;-83
2022/03/09 16:16:11;;;;;;;11.63;7.55;;;;;;;;;;5052632;28;20033;-81
2022/03/09 16:18:37;;;;;;;11.18;7.30;;;;;;;;;;5027116;28;20091;-81
2022/03/09 16:21:03;;;;;;;11.45;7.35;;;;;;;;;;5041151;28;20416;-80
2022/03/09 16:23:30;;;;;;;12.00;7.63;;;;;;;;;;5024087;28;20037;-80
2022/03/09 16:25:56;;;;;;;11.23;7.53;;;;;;;;;;5041603;28;20067;-80
2022/03/09 16:28:22;;;;;;;10.80;7.63;;;;;;;;;;5028576;28;20120;-81
2022/03/09 16:30:48;;;;;;;12.88;7.35;;;;;;;;;;5027072;28;20041;-80
2022/03/09 16:33:15;;;;;;;12.50;7.38;;;;;;;;;;5026204;28;20051;-81
2022/03/09 16:35:40;;;;;;;13.02;7.55;;;;;;;;;;5025680;28;20041;-81
2022/03/09 16:38:06;;;;;;;13.05;7.80;;;;;;;;;;5044658;28;20049;-80
2022/03/09 16:40:33;;;;;;;13.18;7.32;;;;;;;;;;5028477;28;20041;-81
2022/03/09 16:42:59;;;;;;;11.15;7.20;;;;;;;;;;5041346;28;20396;-80
2022/03/09 16:45:28;;;;;;;13.32;7.53;;;;;;;;;;5041503;28;20120;-79
2022/03/09 16:47:54;;;;;;;12.00;7.63;;;;;;;;;;5024641;28;20480;-80
2022/03/09 16:50:21;;;;;;;11.75;7.68;;;;;;;;;;5041244;28;20033;-80
2022/03/09 16:52:47;;;;;;;16.58;8.43;;;;;;;;;;5024420;28;20097;-79
2022/03/09 16:55:13;;;;;;;13.48;8.10;;;;;;;;;;5041658;28;20135;-80
2022/03/09 16:57:39;;;;;;;14.00;7.70;;;;;;;;;;5040248;28;20046;-79
2022/03/09 17:00:06;;;;;;;15.75;8.05;;;;;;;;;;5023475;28;20045;-80
2022/03/09 17:02:32;;;;;;;13.20;7.88;;;;;;;;;;5024592;28;20113;-81
2022/03/09 17:04:58;;;;;;;15.38;7.88;;;;;;;;;;5024793;28;20046;-80
2022/03/09 17:07:24;;;;;;;12.50;8.30;;;;;;;;;;5041408;28;20071;-81
2022/03/09 17:09:50;;;;;;;37.45;23.73;;;;;;;;;;5042241;28;20033;-80
2022/03/09 17:12:16;;;;;;;71.60;45.78;;;;;;;;;;5043150;28;20041;-80
2022/03/09 17:14:42;;;;;;;16.65;10.55;;;;;;;;;;5024455;28;20428;-80
2022/03/09 17:17:08;;;;;;;15.95;9.32;;;;;;;;;;5038103;28;20048;-80
2022/03/09 17:19:34;;;;;;;17.58;10.48;;;;;;;;;;5023007;28;20045;-80
2022/03/09 17:22:00;;;;;;;13.85;8.45;;;;;;;;;;5042962;28;20091;-81
2022/03/09 17:24:26;;;;;;;15.18;8.38;;;;;;;;;;5025340;28;20041;-81
2022/03/09 17:26:52;;;;;;;14.40;8.20;;;;;;;;;;5025158;28;20060;-79
2022/03/09 17:29:19;;;;;;;14.10;8.13;;;;;;;;;;5038894;28;20402;-79